Time;durP1;ratioP1;P1;durP2;ratioP2;P2;SDS_P1;SDS_P2;PMS_P1;PMS_P2;Temp;Humidity;BMP_temperature;BMP_pressure;BME280_temperature;BME280_humidity;BME280_pressure;Samples;Min_cycle;Max_cycle;Signal;HPM_P1;HPM_P2
2023/10/14 00:01:27;;;;;;;5.68;1.10;;;14.30;99.90;;;;;;4974375;28;20047;-63
2023/10/14 00:03:54;;;;;;;4.47;1.17;;;14.40;99.90;;;;;;4946010;28;20043;-64
2023/10/14 00:06:21;;;;;;;6.40;1.60;;;14.40;99.90;;;;;;4956935;28;20051;-64
2023/10/14 00:09:08;;;;;;;7.18;1.60;;;14.30;99.90;;;;;;4954642;28;20478;-65
2023/10/14 00:11:35;;;;;;;2.42;1.17;;;14.20;99.90;;;;;;4954636;28;20066;-64
2023/10/14 00:14:16;;;;;;;4.22;1.10;;;14.00;99.90;;;;;;4958291;28;20058;-64
2023/10/14 00:16:49;;;;;;;7.60;1.58;;;14.10;99.90;;;;;;4991690;28;20193;-62
2023/10/14 00:19:21;;;;;;;5.20;1.50;;;13.80;99.90;;;;;;4957620;28;20051;-63
2023/10/14 00:21:49;;;;;;;4.10;1.27;;;13.80;99.90;;;;;;4974019;28;20459;-61
2023/10/14 00:24:26;;;;;;;5.53;1.27;;;13.70;99.90;;;;;;4974114;28;20042;-62
2023/10/14 00:27:07;;;;;;;5.68;2.22;;;13.70;99.90;;;;;;4991007;28;20383;-61
2023/10/14 00:29:35;;;;;;;6.22;1.60;;;13.70;99.90;;;;;;4973940;28;20412;-62
2023/10/14 00:32:04;;;;;;;3.97;1.20;;;13.70;99.90;;;;;;4968934;28;20062;-62
2023/10/14 00:34:30;;;;;;;5.70;1.45;;;13.70;99.90;;;;;;4961743;28;20058;-61
2023/10/14 00:36:57;;;;;;;3.67;1.30;;;13.60;99.90;;;;;;4973822;28;20065;-61
2023/10/14 00:39:31;;;;;;;6.07;1.58;;;13.50;99.90;;;;;;4973612;28;20046;-61
2023/10/14 00:41:59;;;;;;;4.93;1.48;;;13.60;99.90;;;;;;4974291;28;20050;-62
2023/10/14 00:44:25;;;;;;;6.57;1.75;;;13.60;99.90;;;;;;4974038;28;20140;-63
2023/10/14 00:46:53;;;;;;;7.07;1.80;;;13.50;99.90;;;;;;4957934;28;20383;-61
2023/10/14 00:49:22;;;;;;;5.10;2.05;;;13.40;99.90;;;;;;4973448;28;20407;-62
2023/10/14 00:51:53;;;;;;;6.95;1.98;;;13.40;99.90;;;;;;4974127;28;20399;-62
2023/10/14 00:59:48;;;;;;;7.57;1.83;;;13.40;99.90;;;;;;4974376;28;20382;-62
2023/10/14 01:02:14;;;;;;;5.90;1.70;;;13.30;99.90;;;;;;4994816;28;20061;-62
2023/10/14 01:04:48;;;;;;;7.68;1.75;;;13.40;99.90;;;;;;4994205;28;20097;-61
2023/10/14 01:07:15;;;;;;;3.53;1.27;;;13.30;99.90;;;;;;4977018;28;20101;-59
2023/10/14 01:12:23;;;;;;;8.75;1.85;;;13.10;99.90;;;;;;4977299;28;20050;-62
2023/10/14 01:14:53;;;;;;;10.85;2.70;;;13.20;99.90;;;;;;4972668;28;20047;-61
2023/10/14 01:17:30;;;;;;;8.38;2.00;;;13.10;99.90;;;;;;4957237;28;20464;-62
2023/10/14 01:22:43;;;;;;;11.50;2.20;;;13.00;99.90;;;;;;4958028;28;20047;-60
2023/10/14 01:25:15;;;;;;;11.68;2.38;;;12.90;99.90;;;;;;4969505;28;20058;-62
2023/10/14 01:27:43;;;;;;;11.60;2.10;;;12.90;99.90;;;;;;4976538;28;20043;-62
2023/10/14 01:30:11;;;;;;;9.00;2.15;;;12.80;99.90;;;;;;4977153;28;20046;-62
2023/10/14 01:35:32;;;;;;;7.70;2.10;;;12.80;99.90;;;;;;4976563;28;20120;-61
2023/10/14 01:38:00;;;;;;;8.43;2.08;;;12.70;99.90;;;;;;4993541;28;20055;-60
2023/10/14 01:40:35;;;;;;;11.35;3.03;;;12.60;99.90;;;;;;4993545;28;20046;-62
2023/10/14 01:43:06;;;;;;;12.25;2.05;;;12.60;99.90;;;;;;4976999;28;20411;-62
2023/10/14 01:45:40;;;;;;;8.07;2.20;;;12.60;99.90;;;;;;4976169;28;20050;-62
2023/10/14 01:50:46;;;;;;;4.15;1.42;;;12.40;99.90;;;;;;4977027;28;20058;-62
2023/10/14 01:53:17;;;;;;;7.10;1.80;;;12.40;99.90;;;;;;4976698;28;20046;-63
2023/10/14 01:55:45;;;;;;;9.15;1.83;;;12.40;99.90;;;;;;4976565;28;20082;-62
2023/10/14 01:58:29;;;;;;;15.73;2.13;;;12.20;99.90;;;;;;4992178;28;20069;-62
2023/10/14 02:00:58;;;;;;;8.63;1.77;;;12.20;99.90;;;;;;4976601;28;20058;-61
2023/10/14 02:03:31;;;;;;;9.73;2.10;;;12.20;99.90;;;;;;4975982;28;20046;-62
2023/10/14 02:05:58;;;;;;;6.60;1.95;;;12.10;99.90;;;;;;4975890;28;20054;-62
2023/10/14 02:08:25;;;;;;;11.02;2.63;;;12.10;99.90;;;;;;4993233;28;20405;-61
2023/10/14 02:10:53;;;;;;;8.52;2.95;;;12.10;99.90;;;;;;4975955;28;20046;-61
2023/10/14 02:13:21;;;;;;;10.00;2.13;;;12.10;99.90;;;;;;4975496;28;20423;-63
2023/10/14 02:15:49;;;;;;;6.97;1.50;;;12.10;99.90;;;;;;4975760;28;20050;-63
2023/10/14 02:18:21;;;;;;;7.47;2.03;;;12.00;99.90;;;;;;4975756;28;20046;-61
2023/10/14 02:20:57;;;;;;;9.90;1.92;;;12.00;99.90;;;;;;4975935;28;20047;-63
2023/10/14 02:23:45;;;;;;;9.30;2.40;;;12.00;99.90;;;;;;4976278;28;20042;-58
2023/10/14 02:26:16;;;;;;;8.60;2.10;;;12.00;99.90;;;;;;4975705;28;20410;-62
2023/10/14 02:28:45;;;;;;;11.38;2.30;;;12.00;99.90;;;;;;4993249;28;20058;-61
2023/10/14 02:31:29;;;;;;;7.25;2.28;;;12.00;99.90;;;;;;4976230;28;20046;-61
2023/10/14 02:33:56;;;;;;;7.70;1.95;;;12.00;99.90;;;;;;4975812;28;20066;-62
2023/10/14 02:36:29;;;;;;;6.13;2.13;;;11.80;99.90;;;;;;4993056;28;20050;-60
2023/10/14 02:38:57;;;;;;;7.88;2.35;;;11.90;99.90;;;;;;4975386;28;20085;-62
2023/10/14 02:41:31;;;;;;;7.45;1.52;;;11.80;99.90;;;;;;4975986;28;20156;-63
2023/10/14 02:44:44;;;;;;;9.75;1.92;;;11.80;99.90;;;;;;4975602;28;20195;-59
2023/10/14 02:46:54;;;;;;;9.10;2.30;;;11.70;99.90;;;;;;4965458;28;20053;-60
2023/10/14 02:49:25;;;;;;;7.30;2.05;;;11.70;99.90;;;;;;4959090;28;20101;-59
2023/10/14 02:51:52;;;;;;;8.73;1.65;;;11.80;99.90;;;;;;4975515;28;20062;-59
2023/10/14 02:54:34;;;;;;;10.75;1.85;;;11.80;99.90;;;;;;4975244;28;20121;-61
2023/10/14 02:57:14;;;;;;;8.10;1.52;;;11.60;99.90;;;;;;4975029;28;20062;-61
2023/10/14 03:12:39;;;;;;;7.80;1.70;;;11.70;99.90;;;;;;4975115;28;20243;-62
2023/10/14 03:15:19;;;;;;;9.50;1.48;;;11.70;99.90;;;;;;4974619;28;20133;-63
2023/10/14 03:17:56;;;;;;;9.73;2.08;;;11.80;99.90;;;;;;4974941;28;20054;-61
2023/10/14 03:22:58;;;;;;;;;;;11.80;99.90;;;;;;4992782;28;20059;-63
2023/10/14 03:25:27;;;;;;;8.10;2.25;;;11.80;99.90;;;;;;4974647;28;19921;-61
2023/10/14 03:27:59;;;;;;;7.35;1.70;;;11.80;99.90;;;;;;4991733;28;20057;-63
2023/10/14 03:30:27;;;;;;;6.78;1.70;;;11.80;99.90;;;;;;4992225;28;20160;-61
2023/10/14 03:32:54;;;;;;;9.05;1.80;;;11.80;99.90;;;;;;4974905;28;20116;-62
2023/10/14 03:35:21;;;;;;;11.07;1.80;;;11.70;99.90;;;;;;4974539;28;20312;-61
2023/10/14 03:37:54;;;;;;;6.18;1.52;;;11.60;99.90;;;;;;4974300;28;20053;-61
2023/10/14 03:43:08;;;;;;;7.85;1.75;;;11.70;99.90;;;;;;4974505;28;20061;-62
2023/10/14 03:45:46;;;;;;;8.43;2.05;;;11.60;99.90;;;;;;4991634;28;20144;-62
2023/10/14 03:48:13;;;;;;;6.75;1.50;;;11.70;99.90;;;;;;4991446;28;20053;-63
2023/10/14 03:50:40;;;;;;;4.93;1.77;;;11.60;99.90;;;;;;4958851;28;20379;-62
2023/10/14 03:53:09;;;;;;;5.85;1.40;;;11.60;99.90;;;;;;4974858;28;20058;-60
2023/10/14 03:55:38;;;;;;;10.95;2.67;;;11.50;99.90;;;;;;4974770;28;20058;-62
2023/10/14 03:58:04;;;;;;;11.25;2.13;;;11.50;99.90;;;;;;4974403;28;20050;-60
2023/10/14 04:00:37;;;;;;;5.55;1.60;;;11.60;99.90;;;;;;4974287;28;20056;-62
2023/10/14 04:03:24;;;;;;;8.23;1.55;;;11.50;99.90;;;;;;4974371;28;20050;-60
2023/10/14 04:06:00;;;;;;;9.32;2.25;;;11.50;99.90;;;;;;4974014;28;20050;-60
2023/10/14 04:08:39;;;;;;;8.32;1.65;;;11.50;99.90;;;;;;4973696;28;20042;-62
2023/10/14 04:11:12;;;;;;;10.13;1.70;;;11.50;99.90;;;;;;4974246;28;20054;-61
2023/10/14 04:13:51;;;;;;;7.32;1.58;;;11.50;99.90;;;;;;4974462;28;20084;-62
2023/10/14 04:16:27;;;;;;;8.48;1.60;;;11.50;99.90;;;;;;4973745;28;20058;-62
2023/10/14 04:18:59;;;;;;;9.85;1.40;;;11.50;99.90;;;;;;4973629;28;20447;-62
2023/10/14 04:21:35;;;;;;;8.57;1.95;;;11.60;99.90;;;;;;4974372;28;20054;-62
2023/10/14 04:24:12;;;;;;;7.28;1.63;;;11.60;99.90;;;;;;4974112;28;20058;-61
2023/10/14 04:26:41;;;;;;;9.23;2.00;;;11.50;99.90;;;;;;4958215;28;20046;-62
2023/10/14 04:29:17;;;;;;;8.30;1.85;;;11.40;99.90;;;;;;4973641;28;20109;-61
2023/10/14 04:31:55;;;;;;;8.70;1.65;;;11.50;99.90;;;;;;4991772;28;20058;-60
2023/10/14 04:34:22;;;;;;;7.20;2.17;;;11.50;99.90;;;;;;4973850;28;20339;-63
2023/10/14 04:36:54;;;;;;;7.05;2.00;;;11.50;99.90;;;;;;4961402;28;20180;-62
2023/10/14 04:39:29;;;;;;;8.95;1.85;;;11.50;99.90;;;;;;4995346;28;20050;-60
2023/10/14 04:41:55;;;;;;;7.07;2.00;;;11.50;99.90;;;;;;4995074;28;20050;-60
2023/10/14 04:44:23;;;;;;;8.80;1.77;;;11.50;99.90;;;;;;4977237;28;20053;-62
2023/10/14 04:47:01;;;;;;;8.48;2.63;;;11.50;99.90;;;;;;4977388;28;20070;-62
2023/10/14 04:49:37;;;;;;;6.97;1.42;;;11.40;99.90;;;;;;4995003;28;20077;-61
2023/10/14 04:52:05;;;;;;;7.45;1.65;;;11.30;99.90;;;;;;4977875;28;20050;-61
2023/10/14 04:54:34;;;;;;;9.90;2.72;;;11.30;99.90;;;;;;4977235;28;20383;-62
2023/10/14 04:57:19;;;;;;;10.63;1.95;;;11.40;99.90;;;;;;4977207;28;20054;-60
2023/10/14 04:59:46;;;;;;;6.70;1.77;;;11.40;99.90;;;;;;4977318;28;20061;-60
2023/10/14 05:02:20;;;;;;;5.43;1.52;;;11.40;99.90;;;;;;4977740;28;20054;-62
2023/10/14 05:04:51;;;;;;;11.77;2.25;;;11.30;99.90;;;;;;4977031;28;20042;-60
2023/10/14 05:07:19;;;;;;;8.52;2.65;;;11.40;99.90;;;;;;4977115;28;20061;-61
2023/10/14 05:09:56;;;;;;;9.75;2.10;;;11.30;99.90;;;;;;4977326;28;20466;-61
2023/10/14 05:12:26;;;;;;;11.88;1.92;;;11.20;99.90;;;;;;4977206;28;20481;-60
2023/10/14 05:14:55;;;;;;;7.45;2.22;;;11.20;99.90;;;;;;4977087;28;20101;-61
2023/10/14 05:17:25;;;;;;;9.07;1.95;;;11.20;99.90;;;;;;4976710;28;20050;-62
2023/10/14 05:19:57;;;;;;;11.27;2.13;;;11.30;99.90;;;;;;4961202;28;20050;-61
2023/10/14 05:22:24;;;;;;;9.75;1.77;;;11.30;99.90;;;;;;4976995;28;20069;-60
2023/10/14 05:25:03;;;;;;;8.73;2.35;;;11.30;99.90;;;;;;4976949;28;20050;-62
2023/10/14 05:27:45;;;;;;;10.70;2.30;;;11.30;99.90;;;;;;4976729;28;20046;-62
2023/10/14 05:30:21;;;;;;;12.13;2.67;;;11.30;99.90;;;;;;4977402;28;20085;-62
2023/10/14 05:32:49;;;;;;;15.07;2.33;;;11.30;99.90;;;;;;4960822;28;20061;-61
2023/10/14 05:35:15;;;;;;;8.50;1.83;;;11.20;99.90;;;;;;4976416;28;20113;-63
2023/10/14 05:37:41;;;;;;;13.20;2.05;;;11.30;99.90;;;;;;4993978;28;20046;-62
2023/10/14 05:40:14;;;;;;;10.75;1.92;;;11.30;99.90;;;;;;4976627;28;20050;-62
2023/10/14 05:42:48;;;;;;;7.75;1.67;;;11.30;99.90;;;;;;4951917;28;20043;-62
2023/10/14 05:45:14;;;;;;;10.63;2.03;;;11.30;99.90;;;;;;4969797;28;20098;-62
2023/10/14 05:47:46;;;;;;;8.48;1.73;;;11.20;99.90;;;;;;4965818;28;20057;-62
2023/10/14 05:50:14;;;;;;;14.88;2.35;;;11.20;99.90;;;;;;4967033;28;20058;-61
2023/10/14 05:52:43;;;;;;;6.63;1.60;;;11.20;99.90;;;;;;4965743;28;20154;-59
2023/10/14 05:55:09;;;;;;;13.35;2.38;;;11.20;99.90;;;;;;4964703;28;20054;-60
2023/10/14 05:57:39;;;;;;;10.85;2.28;;;11.20;99.90;;;;;;4963891;28;20054;-61
2023/10/14 06:00:20;;;;;;;7.93;1.63;;;11.10;99.90;;;;;;4978353;28;20055;-62
2023/10/14 06:02:54;;;;;;;8.15;1.88;;;11.10;99.90;;;;;;4973910;28;20451;-62
2023/10/14 06:05:25;;;;;;;12.13;2.00;;;11.10;99.90;;;;;;4963328;28;20042;-62
2023/10/14 06:08:05;;;;;;;14.20;2.13;;;11.10;99.90;;;;;;4983742;28;20146;-61
2023/10/14 06:10:41;;;;;;;7.47;1.90;;;11.00;99.90;;;;;;4964467;28;20109;-61
2023/10/14 06:13:09;;;;;;;8.00;1.80;;;11.00;99.90;;;;;;4964816;28;20058;-61
2023/10/14 06:15:39;;;;;;;11.90;2.30;;;11.00;99.90;;;;;;4970994;28;20138;-61
2023/10/14 06:18:08;;;;;;;14.07;2.92;;;11.10;99.90;;;;;;4992601;28;20411;-62
2023/10/14 06:20:37;;;;;;;9.73;2.03;;;11.00;99.90;;;;;;4969326;28;20683;-60
2023/10/14 06:23:07;;;;;;;8.45;2.00;;;11.00;99.90;;;;;;4945002;28;20047;-59
2023/10/14 06:25:38;;;;;;;9.20;2.63;;;11.10;99.90;;;;;;4949406;28;20038;-61
2023/10/14 06:28:07;;;;;;;8.35;1.88;;;11.10;99.90;;;;;;4944889;28;20047;-62
2023/10/14 06:30:33;;;;;;;9.05;2.22;;;11.20;99.90;;;;;;4948187;28;20102;-62
2023/10/14 06:33:06;;;;;;;9.93;1.95;;;11.20;99.90;;;;;;4965546;28;20069;-61
2023/10/14 06:35:34;;;;;;;11.68;2.40;;;11.20;99.90;;;;;;4959454;28;20054;-59
2023/10/14 06:38:04;;;;;;;9.68;2.03;;;11.30;99.90;;;;;;4949228;28;20063;-62
2023/10/14 06:40:36;;;;;;;10.60;1.70;;;11.20;99.90;;;;;;4945505;28;20094;-61
2023/10/14 06:43:13;;;;;;;10.98;2.85;;;11.30;99.90;;;;;;4962523;28;20427;-61
2023/10/14 06:45:39;;;;;;;26.52;3.08;;;11.30;99.90;;;;;;4953148;28;20118;-63
2023/10/14 06:48:12;;;;;;;11.70;2.65;;;11.30;99.90;;;;;;4941137;29;20054;-60
2023/10/14 06:50:42;;;;;;;8.20;2.28;;;11.40;99.90;;;;;;4944346;28;20105;-62
2023/10/14 06:53:08;;;;;;;10.13;2.28;;;11.40;99.90;;;;;;4959802;28;20062;-61
2023/10/14 06:55:39;;;;;;;6.93;1.75;;;11.40;99.90;;;;;;4953028;28;20125;-63
2023/10/14 06:58:11;;;;;;;10.40;2.35;;;11.30;99.90;;;;;;4943981;28;20055;-61
2023/10/14 07:00:38;;;;;;;;;;;11.50;99.90;;;;;;4957592;28;20058;-60
2023/10/14 07:03:16;;;;;;;9.75;2.13;;;11.50;99.90;;;;;;4952627;29;19957;-61
2023/10/14 07:05:57;;;;;;;8.05;2.05;;;11.50;99.90;;;;;;4980198;28;20140;-61
2023/10/14 07:08:24;;;;;;;9.85;2.55;;;11.50;99.90;;;;;;4991920;28;20046;-60
2023/10/14 07:10:52;;;;;;;12.00;2.53;;;11.60;99.90;;;;;;4992275;28;20050;-60
2023/10/14 07:13:22;;;;;;;9.55;1.90;;;11.70;99.90;;;;;;4954807;28;20055;-61
2023/10/14 07:15:50;;;;;;;8.75;2.20;;;11.70;99.90;;;;;;4953907;28;20054;-62
2023/10/14 07:18:24;;;;;;;15.82;2.30;;;11.80;99.90;;;;;;4955595;28;20051;-60
2023/10/14 07:21:00;;;;;;;12.82;3.22;;;11.80;99.90;;;;;;4936472;29;20051;-62
2023/10/14 07:23:34;;;;;;;7.15;2.35;;;11.80;99.90;;;;;;4936030;29;20053;-62
2023/10/14 07:26:11;;;;;;;12.40;2.45;;;12.00;99.90;;;;;;4979869;28;20046;-61
2023/10/14 07:28:42;;;;;;;9.10;2.60;;;12.10;99.90;;;;;;4940613;29;20051;-62
2023/10/14 07:31:11;;;;;;;7.03;1.95;;;12.00;99.90;;;;;;4936060;28;20147;-63
2023/10/14 07:33:38;;;;;;;12.70;2.17;;;11.90;99.90;;;;;;4962875;28;20054;-62
2023/10/14 07:36:06;;;;;;;9.05;2.00;;;11.90;99.90;;;;;;4964498;28;20388;-62
2023/10/14 07:38:36;;;;;;;11.52;2.13;;;11.90;99.90;;;;;;4964417;28;20058;-64
2023/10/14 07:41:03;;;;;;;12.25;2.50;;;11.80;99.90;;;;;;4966584;28;20054;-61
2023/10/14 07:43:29;;;;;;;10.43;2.40;;;11.90;99.90;;;;;;4951159;28;20062;-59
2023/10/14 07:45:58;;;;;;;14.18;2.38;;;11.90;99.90;;;;;;4963053;28;20177;-62
2023/10/14 07:48:24;;;;;;;13.70;2.80;;;12.10;99.90;;;;;;4971735;28;20364;-58
2023/10/14 07:50:55;;;;;;;10.93;2.63;;;12.30;99.90;;;;;;4963508;28;20051;-61
2023/10/14 07:53:22;;;;;;;12.52;2.58;;;12.40;99.90;;;;;;4958976;28;20133;-61
2023/10/14 07:55:51;;;;;;;11.80;2.67;;;12.60;99.90;;;;;;4960769;28;20475;-59
2023/10/14 07:58:20;;;;;;;10.68;2.20;;;12.80;99.90;;;;;;4990760;28;20148;-61
2023/10/14 08:00:50;;;;;;;9.82;2.42;;;13.10;99.90;;;;;;4968585;28;20053;-61
2023/10/14 08:03:20;;;;;;;10.32;2.28;;;13.20;99.90;;;;;;4943388;29;20065;-61
2023/10/14 08:05:49;;;;;;;13.50;2.70;;;13.30;99.90;;;;;;4957081;28;20058;-62
2023/10/14 08:08:17;;;;;;;12.40;2.85;;;13.40;99.90;;;;;;4952081;29;20047;-60
2023/10/14 08:10:48;;;;;;;9.40;2.45;;;13.50;99.90;;;;;;4935130;29;20066;-62
2023/10/14 08:13:14;;;;;;;12.30;3.13;;;13.70;99.90;;;;;;4952761;29;20345;-61
2023/10/14 08:15:40;;;;;;;10.93;2.20;;;13.70;99.90;;;;;;4977784;28;20100;-62
2023/10/14 08:18:07;;;;;;;11.68;2.40;;;13.80;99.90;;;;;;4965751;28;20058;-59
2023/10/14 08:20:34;;;;;;;9.35;2.05;;;13.80;99.90;;;;;;4963528;28;20054;-60
2023/10/14 08:23:02;;;;;;;10.45;2.50;;;13.70;99.90;;;;;;4963742;28;20051;-61
2023/10/14 08:25:31;;;;;;;9.93;2.40;;;13.60;99.90;;;;;;4976148;28;20464;-63
2023/10/14 08:27:57;;;;;;;8.90;1.83;;;13.60;99.90;;;;;;4989071;28;20463;-61
2023/10/14 08:30:32;;;;;;;14.05;2.63;;;13.70;99.90;;;;;;4973531;28;20065;-62
2023/10/14 08:32:59;;;;;;;10.63;2.20;;;13.90;99.90;;;;;;4959636;28;20472;-61
2023/10/14 08:35:28;;;;;;;9.05;2.10;;;14.10;99.90;;;;;;4963389;28;20055;-60
2023/10/14 08:37:57;;;;;;;12.98;2.33;;;14.20;99.90;;;;;;4958076;28;20468;-59
2023/10/14 08:40:26;;;;;;;9.27;2.60;;;14.30;99.90;;;;;;4953597;28;20440;-61
2023/10/14 08:43:05;;;;;;;11.80;2.90;;;14.30;99.90;;;;;;4971639;28;20060;-59
2023/10/14 08:45:39;;;;;;;5.95;2.03;;;14.30;99.90;;;;;;4982330;28;20375;-60
2023/10/14 08:48:08;;;;;;;7.07;2.08;;;14.20;99.90;;;;;;4967271;28;20055;-60
2023/10/14 08:50:36;;;;;;;13.27;2.60;;;14.30;99.90;;;;;;4962030;28;20645;-61
2023/10/14 08:53:04;;;;;;;8.98;1.95;;;14.30;99.90;;;;;;4962439;28;20062;-60
2023/10/14 08:55:34;;;;;;;13.07;2.90;;;14.30;99.90;;;;;;4960907;28;20050;-61
2023/10/14 08:58:02;;;;;;;6.05;2.00;;;14.40;99.90;;;;;;4956272;28;20055;-60
2023/10/14 09:00:30;;;;;;;9.98;2.30;;;14.50;99.90;;;;;;4956796;28;20067;-61
2023/10/14 09:03:00;;;;;;;7.93;2.10;;;14.40;99.90;;;;;;4969151;28;20074;-62
2023/10/14 09:05:28;;;;;;;10.52;2.00;;;14.50;99.90;;;;;;4972180;28;20561;-61
2023/10/14 09:07:57;;;;;;;7.50;2.20;;;14.50;99.90;;;;;;4989456;28;20128;-59
2023/10/14 09:10:24;;;;;;;10.13;1.90;;;14.50;99.90;;;;;;4969998;28;20146;-61
2023/10/14 09:12:55;;;;;;;10.13;2.38;;;14.60;99.90;;;;;;4949601;28;20062;-62
2023/10/14 09:15:22;;;;;;;8.80;1.92;;;14.40;99.90;;;;;;4963454;28;20047;-62
2023/10/14 09:17:49;;;;;;;10.55;1.90;;;14.50;99.90;;;;;;4929794;28;20047;-62
2023/10/14 09:20:34;;;;;;;7.72;2.10;;;14.50;99.90;;;;;;4955451;28;20099;-61
2023/10/14 09:23:19;;;;;;;6.78;1.95;;;14.50;99.90;;;;;;4955424;28;20039;-62
2023/10/14 09:25:52;;;;;;;10.15;2.70;;;14.60;99.90;;;;;;4964691;28;20054;-60
2023/10/14 09:28:20;;;;;;;9.65;2.17;;;14.70;99.90;;;;;;4957251;28;20038;-63
2023/10/14 09:30:51;;;;;;;8.05;1.70;;;14.70;99.90;;;;;;4974094;28;20061;-61
2023/10/14 09:33:27;;;;;;;9.70;1.77;;;14.80;99.90;;;;;;4955383;28;20475;-61
2023/10/14 09:36:11;;;;;;;10.48;1.85;;;15.00;99.90;;;;;;4984311;28;20132;-62
2023/10/14 09:38:39;;;;;;;10.10;1.95;;;15.00;99.90;;;;;;4974109;28;20145;-59
2023/10/14 09:41:07;;;;;;;7.40;2.35;;;15.10;99.90;;;;;;4986963;28;20051;-61
2023/10/14 09:43:39;;;;;;;10.43;1.98;;;15.30;99.90;;;;;;4974260;28;20043;-61
2023/10/14 09:46:09;;;;;;;6.60;1.70;;;15.20;99.90;;;;;;4988424;28;20145;-60
2023/10/14 09:48:35;;;;;;;12.38;2.50;;;15.30;99.90;;;;;;4987906;28;20050;-62
2023/10/14 09:51:04;;;;;;;7.88;1.63;;;15.20;99.90;;;;;;4957220;28;20077;-61
2023/10/14 09:53:35;;;;;;;8.60;2.20;;;14.90;99.90;;;;;;4974315;28;20082;-61
2023/10/14 09:56:12;;;;;;;8.45;2.25;;;14.60;99.90;;;;;;4988703;28;20062;-61
2023/10/14 09:58:41;;;;;;;8.18;2.00;;;14.50;99.90;;;;;;4993037;28;20053;-60
2023/10/14 10:01:14;;;;;;;8.52;1.98;;;14.30;99.90;;;;;;4976544;28;20042;-55
2023/10/14 10:03:45;;;;;;;6.40;2.10;;;14.20;99.90;;;;;;4973669;28;20142;-58
2023/10/14 10:06:35;;;;;;;7.47;1.63;;;14.20;99.90;;;;;;4990218;28;20062;-59
2023/10/14 10:09:08;;;;;;;9.07;2.03;;;14.20;99.90;;;;;;4994284;28;20043;-61
2023/10/14 10:11:37;;;;;;;7.82;2.00;;;14.20;99.90;;;;;;4975922;28;20503;-61
2023/10/14 10:14:12;;;;;;;9.18;1.83;;;14.30;99.90;;;;;;4993690;28;20058;-59
2023/10/14 10:16:41;;;;;;;6.00;1.60;;;14.40;99.90;;;;;;4975764;28;20054;-62
2023/10/14 10:19:09;;;;;;;8.23;1.70;;;14.50;99.90;;;;;;4976682;28;20058;-61
2023/10/14 10:21:40;;;;;;;6.50;1.90;;;14.60;99.90;;;;;;4993752;28;20054;-59
2023/10/14 10:24:17;;;;;;;10.73;1.90;;;14.60;99.90;;;;;;4977132;28;20046;-61
2023/10/14 10:27:14;;;;;;;9.50;1.83;;;14.70;99.90;;;;;;4995111;28;20046;-62
2023/10/14 10:29:55;;;;;;;8.93;1.88;;;15.00;99.90;;;;;;4966979;28;20047;-61
2023/10/14 10:32:23;;;;;;;8.48;2.00;;;15.10;99.90;;;;;;4957398;28;20447;-61
2023/10/14 10:35:05;;;;;;;6.90;1.70;;;15.30;99.90;;;;;;4958031;28;20456;-60
2023/10/14 10:37:46;;;;;;;7.82;1.63;;;15.20;99.90;;;;;;4954617;29;20062;-63
2023/10/14 10:40:15;;;;;;;6.97;1.90;;;15.10;99.90;;;;;;4939593;29;20110;-62
2023/10/14 10:42:46;;;;;;;10.68;1.73;;;15.00;99.90;;;;;;4955038;29;20055;-63
2023/10/14 10:45:23;;;;;;;8.50;1.95;;;15.10;99.90;;;;;;4971098;28;20046;-62
2023/10/14 10:47:52;;;;;;;4.53;1.33;;;15.00;99.90;;;;;;4992204;28;20065;-63
2023/10/14 10:50:18;;;;;;;7.07;1.63;;;15.20;99.90;;;;;;4993621;28;20231;-63
2023/10/14 10:53:16;;;;;;;6.20;1.55;;;15.30;99.90;;;;;;4992610;28;20120;-64
2023/10/14 10:55:47;;;;;;;5.45;1.23;;;15.60;99.90;;;;;;4992492;28;20038;-62
2023/10/14 10:58:15;;;;;;;6.60;1.85;;;15.70;99.90;;;;;;4992469;28;20105;-64
2023/10/14 11:00:46;;;;;;;7.43;1.98;;;15.80;99.90;;;;;;4985949;28;20106;-63
2023/10/14 11:03:16;;;;;;;7.78;1.30;;;15.60;99.90;;;;;;4946132;28;20039;-65
2023/10/14 11:05:46;;;;;;;7.30;1.85;;;15.50;99.90;;;;;;4937468;29;20051;-62
2023/10/14 11:08:16;;;;;;;6.70;1.75;;;15.50;99.90;;;;;;4936351;29;20453;-62
2023/10/14 11:10:44;;;;;;;6.18;1.40;;;15.50;99.90;;;;;;4939439;29;20055;-61
2023/10/14 11:13:13;;;;;;;5.63;1.83;;;15.60;99.90;;;;;;4936601;29;20364;-63
2023/10/14 11:15:43;;;;;;;8.18;1.88;;;15.60;99.90;;;;;;4958299;28;20050;-64
2023/10/14 11:18:10;;;;;;;7.30;1.73;;;15.50;99.90;;;;;;4962486;28;20486;-63
2023/10/14 11:20:44;;;;;;;9.00;1.85;;;15.40;99.90;;;;;;4950860;28;20047;-64
2023/10/14 11:23:11;;;;;;;9.55;2.17;;;15.30;99.90;;;;;;4953563;29;20114;-62
2023/10/14 11:25:43;;;;;;;7.75;1.73;;;15.30;99.90;;;;;;4957306;28;20054;-65
2023/10/14 11:28:11;;;;;;;5.78;1.38;;;15.20;99.90;;;;;;4974476;28;20472;-61
2023/10/14 11:30:44;;;;;;;5.18;1.52;;;15.00;99.90;;;;;;4974556;28;20057;-65
2023/10/14 11:33:12;;;;;;;8.45;2.03;;;14.70;99.90;;;;;;4975082;28;20058;-64
2023/10/14 11:35:38;;;;;;;9.15;2.00;;;14.50;99.90;;;;;;4981237;28;20121;-64
2023/10/14 11:38:12;;;;;;;7.85;1.67;;;14.20;99.90;;;;;;4967285;28;20051;-64
2023/10/14 11:40:47;;;;;;;11.02;2.15;;;14.00;99.90;;;;;;4951645;29;20406;-64
2023/10/14 11:43:15;;;;;;;6.80;1.55;;;13.90;99.90;;;;;;4936376;29;20071;-62
2023/10/14 11:45:44;;;;;;;10.63;2.10;;;13.90;99.90;;;;;;4973196;28;20065;-63
2023/10/14 11:48:27;;;;;;;9.23;2.05;;;14.10;99.90;;;;;;4974585;28;20047;-63
2023/10/14 11:51:02;;;;;;;7.97;1.90;;;14.00;99.90;;;;;;4992821;28;20058;-63
2023/10/14 11:53:30;;;;;;;5.93;1.70;;;13.80;99.90;;;;;;4959376;28;20117;-63
2023/10/14 11:55:58;;;;;;;8.13;1.63;;;13.60;99.90;;;;;;4991404;28;20058;-64
2023/10/14 11:58:29;;;;;;;6.78;1.73;;;13.50;99.90;;;;;;4959219;28;20144;-63
2023/10/14 12:00:56;;;;;;;8.85;1.65;;;13.40;99.90;;;;;;4967468;28;20054;-63
2023/10/14 12:03:25;;;;;;;8.98;1.90;;;13.30;99.90;;;;;;4969130;28;20146;-64
2023/10/14 12:05:57;;;;;;;5.28;1.52;;;13.30;99.90;;;;;;4961297;28;20061;-63
2023/10/14 12:08:38;;;;;;;10.23;2.15;;;13.20;99.90;;;;;;4959115;28;20050;-63
2023/10/14 12:11:13;;;;;;;7.60;1.70;;;13.20;99.90;;;;;;4966334;28;20488;-64
2023/10/14 12:13:40;;;;;;;7.10;1.98;;;13.20;99.90;;;;;;4945685;28;20074;-63
2023/10/14 12:16:07;;;;;;;6.22;1.73;;;13.30;99.90;;;;;;4949734;28;20081;-63
2023/10/14 12:18:36;;;;;;;6.07;1.55;;;13.40;99.90;;;;;;4969892;28;20051;-63
2023/10/14 12:21:03;;;;;;;5.55;1.50;;;13.40;99.90;;;;;;4948301;28;20051;-65
2023/10/14 12:23:31;;;;;;;7.63;1.42;;;13.50;99.90;;;;;;4947540;28;20047;-65
2023/10/14 12:26:00;;;;;;;5.88;1.67;;;13.50;99.90;;;;;;4935544;29;20055;-65
2023/10/14 12:28:30;;;;;;;9.13;1.98;;;13.60;99.90;;;;;;4943395;28;20395;-65
2023/10/14 12:31:06;;;;;;;5.45;1.45;;;13.70;99.90;;;;;;4952897;28;20047;-64
2023/10/14 12:33:38;;;;;;;4.47;1.80;;;13.70;99.90;;;;;;4956173;28;20081;-65
2023/10/14 12:36:14;;;;;;;4.53;1.17;;;13.80;99.90;;;;;;4952707;28;20118;-65
2023/10/14 12:38:44;;;;;;;6.57;1.92;;;14.00;99.90;;;;;;4955788;28;20613;-65
2023/10/14 12:41:13;;;;;;;6.78;1.63;;;14.10;99.90;;;;;;4936338;29;20047;-65
2023/10/14 12:43:40;;;;;;;9.73;1.90;;;14.10;99.90;;;;;;4936217;29;20134;-65
2023/10/14 12:46:13;;;;;;;7.63;1.65;;;14.00;99.90;;;;;;4963075;28;20054;-65
2023/10/14 12:48:40;;;;;;;8.45;1.60;;;14.10;99.90;;;;;;4958943;28;20062;-65
2023/10/14 12:51:12;;;;;;;7.68;1.75;;;14.10;99.90;;;;;;4975034;28;20447;-65
2023/10/14 12:53:45;;;;;;;7.40;2.25;;;14.10;99.90;;;;;;4974743;28;20090;-65
2023/10/14 12:56:14;;;;;;;8.43;2.25;;;14.10;99.90;;;;;;4975514;28;20198;-65
2023/10/14 12:58:44;;;;;;;9.27;2.38;;;14.10;99.90;;;;;;4978872;28;20073;-66
2023/10/14 13:01:19;;;;;;;8.15;2.25;;;13.90;99.90;;;;;;4980643;28;20387;-66
2023/10/14 13:03:53;;;;;;;9.07;2.28;;;13.50;99.90;;;;;;4964431;28;20050;-65
2023/10/14 13:06:22;;;;;;;9.93;2.35;;;13.20;99.90;;;;;;4979291;28;20050;-65
2023/10/14 13:08:54;;;;;;;9.10;2.28;;;13.10;99.90;;;;;;4979606;28;20344;-64
2023/10/14 13:11:20;;;;;;;11.52;2.33;;;13.00;99.90;;;;;;4979205;28;20062;-65
2023/10/14 13:13:50;;;;;;;12.45;1.98;;;13.10;99.90;;;;;;4979778;28;20081;-64
2023/10/14 13:16:20;;;;;;;8.10;1.60;;;13.20;99.90;;;;;;4979211;28;20055;-64
2023/10/14 13:18:47;;;;;;;7.47;2.03;;;13.20;99.90;;;;;;4979631;28;20303;-64
2023/10/14 13:21:21;;;;;;;9.93;2.00;;;13.00;99.90;;;;;;4963100;28;20054;-64
2023/10/14 13:23:47;;;;;;;8.48;2.03;;;13.10;99.90;;;;;;4978787;28;20042;-64
2023/10/14 13:26:17;;;;;;;9.07;2.28;;;13.10;99.90;;;;;;4978588;28;20465;-65
2023/10/14 13:28:45;;;;;;;7.65;2.13;;;13.20;99.90;;;;;;4979189;28;20054;-65
2023/10/14 13:31:12;;;;;;;10.63;2.50;;;13.20;99.90;;;;;;4979108;28;20142;-65
2023/10/14 13:33:39;;;;;;;7.88;1.60;;;13.20;99.90;;;;;;4979031;28;20065;-64
2023/10/14 13:36:09;;;;;;;9.90;2.00;;;13.20;99.90;;;;;;4978515;28;20046;-64
2023/10/14 13:38:39;;;;;;;9.23;2.35;;;13.20;99.90;;;;;;4962664;28;20477;-64
2023/10/14 13:41:08;;;;;;;8.80;2.45;;;13.30;99.90;;;;;;4978002;28;20046;-64